Time;durP1;ratioP1;P1;durP2;ratioP2;P2;SDS_P1;SDS_P2;PMS_P1;PMS_P2;Temp;Humidity;BMP_temperature;BMP_pressure;BME280_temperature;BME280_humidity;BME280_pressure;Samples;Min_cycle;Max_cycle;Signal;HPM_P1;HPM_P2
2021/05/28 00:00:30;;;;;;;0.10;0.00;;;16.40;62.30;;;;;;4973190;28;20035;-79
2021/05/28 00:02:56;;;;;;;3.00;0.03;;;16.40;62.30;;;;;;4974514;28;20057;-79
2021/05/28 00:05:22;;;;;;;0.32;0.17;;;16.30;62.30;;;;;;4977299;28;20029;-76
2021/05/28 00:07:48;;;;;;;0.00;0.00;;;16.30;62.40;;;;;;4971016;28;20035;-79
2021/05/28 00:10:14;;;;;;;0.20;0.05;;;16.30;62.60;;;;;;4977637;28;20116;-79
2021/05/28 00:12:41;;;;;;;0.10;0.00;;;16.20;62.60;;;;;;4972682;28;20034;-78
2021/05/28 00:15:08;;;;;;;0.93;0.10;;;16.20;62.70;;;;;;4979229;28;20415;-79
2021/05/28 00:17:34;;;;;;;2.95;0.10;;;16.20;62.80;;;;;;4980529;28;20404;-79
2021/05/28 00:20:00;;;;;;;0.40;0.20;;;16.20;62.80;;;;;;4975430;28;20031;-79
2021/05/28 00:22:26;;;;;;;0.10;0.03;;;16.20;62.80;;;;;;4990033;28;20138;-79
2021/05/28 00:24:53;;;;;;;0.40;0.10;;;16.10;62.80;;;;;;4972763;28;20030;-79
2021/05/28 00:27:19;;;;;;;0.00;0.00;;;16.10;62.90;;;;;;5006595;28;20046;-78
2021/05/28 00:29:45;;;;;;;0.17;0.00;;;16.10;63.00;;;;;;4974643;28;20050;-79
2021/05/28 00:32:11;;;;;;;2.85;0.10;;;16.00;63.00;;;;;;5010421;28;20372;-79
2021/05/28 00:34:37;;;;;;;0.38;0.08;;;16.00;63.20;;;;;;4975095;28;20042;-80
2021/05/28 00:37:03;;;;;;;0.10;0.00;;;16.00;63.30;;;;;;4974695;28;20041;-79
2021/05/28 00:39:29;;;;;;;0.30;0.10;;;15.90;63.30;;;;;;4979273;28;20037;-78
2021/05/28 00:41:55;;;;;;;0.65;0.10;;;15.90;63.30;;;;;;4980937;28;20034;-77
2021/05/28 00:44:26;;;;;;;0.60;0.10;;;15.90;63.30;;;;;;4979074;28;20042;-77
2021/05/28 00:46:53;;;;;;;0.05;0.00;;;15.90;63.40;;;;;;4991806;28;20038;-78
2021/05/28 00:49:19;;;;;;;0.55;0.22;;;15.90;63.50;;;;;;4972854;28;20070;-79
2021/05/28 00:51:46;;;;;;;0.82;0.00;;;15.80;63.40;;;;;;4971656;28;20046;-80
2021/05/28 00:54:12;;;;;;;0.35;0.03;;;15.80;63.50;;;;;;4979425;28;20030;-79
2021/05/28 00:56:38;;;;;;;1.00;0.22;;;15.80;63.50;;;;;;4988686;28;20023;-80
2021/05/28 00:59:05;;;;;;;0.68;0.20;;;15.80;63.60;;;;;;4973430;28;20361;-78
2021/05/28 01:01:31;;;;;;;0.22;0.00;;;15.70;63.60;;;;;;4986646;28;20506;-78
2021/05/28 01:03:57;;;;;;;0.73;0.28;;;15.70;63.70;;;;;;4976753;28;20038;-78
2021/05/28 01:06:24;;;;;;;0.10;0.00;;;15.60;63.80;;;;;;4971718;28;20400;-79
2021/05/28 01:08:51;;;;;;;0.25;0.00;;;15.60;63.90;;;;;;4989052;28;20038;-78
2021/05/28 01:11:17;;;;;;;0.10;0.00;;;15.60;64.00;;;;;;4974687;28;20157;-78
2021/05/28 01:13:43;;;;;;;0.03;0.00;;;15.50;64.00;;;;;;4975915;28;20037;-78
2021/05/28 01:16:09;;;;;;;0.00;0.00;;;15.50;64.10;;;;;;4975826;28;20034;-80
2021/05/28 01:18:35;;;;;;;1.75;0.20;;;15.40;64.10;;;;;;4987908;28;20030;-80
2021/05/28 01:21:01;;;;;;;0.43;0.17;;;15.40;64.10;;;;;;4989210;28;20034;-78
2021/05/28 01:23:27;;;;;;;0.00;0.00;;;15.40;64.10;;;;;;4972326;28;20054;-79
2021/05/28 01:25:54;;;;;;;0.32;0.10;;;15.40;64.20;;;;;;4973671;28;20345;-78
2021/05/28 01:28:20;;;;;;;0.50;0.10;;;15.30;64.20;;;;;;4972774;28;20072;-78
2021/05/28 01:30:46;;;;;;;0.00;0.00;;;15.30;64.20;;;;;;4973378;28;20027;-78
2021/05/28 01:33:12;;;;;;;1.35;0.15;;;15.30;64.30;;;;;;4976980;28;20034;-78
2021/05/28 01:35:38;;;;;;;0.20;0.10;;;15.30;64.40;;;;;;4978174;28;20026;-78
2021/05/28 01:38:05;;;;;;;1.38;0.20;;;15.30;64.40;;;;;;4983000;28;20038;-79
2021/05/28 01:40:32;;;;;;;0.20;0.00;;;15.30;64.40;;;;;;4973940;28;20490;-79
2021/05/28 01:42:58;;;;;;;0.00;0.00;;;15.20;64.40;;;;;;4974975;28;20038;-79
2021/05/28 01:45:24;;;;;;;0.45;0.13;;;15.20;64.40;;;;;;4958478;28;20047;-79
2021/05/28 01:47:51;;;;;;;0.55;0.20;;;15.20;64.60;;;;;;4972761;28;20515;-79
2021/05/28 01:50:17;;;;;;;0.88;0.10;;;15.10;64.50;;;;;;4976753;28;20043;-79
2021/05/28 01:52:43;;;;;;;0.10;0.00;;;15.10;64.60;;;;;;4972786;28;20043;-79
2021/05/28 01:55:11;;;;;;;9.48;0.32;;;15.10;64.70;;;;;;4974966;28;20027;-80
2021/05/28 01:57:37;;;;;;;0.30;0.10;;;15.00;64.70;;;;;;4985912;28;20030;-79
2021/05/28 02:00:08;;;;;;;0.10;0.00;;;15.00;64.70;;;;;;4975854;28;20046;-79
2021/05/28 02:02:35;;;;;;;0.10;0.10;;;15.00;64.80;;;;;;4967737;28;20057;-79
2021/05/28 02:05:01;;;;;;;0.00;0.00;;;15.00;64.90;;;;;;4965845;28;20039;-79
2021/05/28 02:07:27;;;;;;;0.60;0.10;;;14.90;65.00;;;;;;4964700;28;20039;-79
2021/05/28 02:09:53;;;;;;;0.00;0.00;;;14.90;65.20;;;;;;4971483;28;20033;-79
2021/05/28 02:12:21;;;;;;;0.30;0.10;;;14.80;65.30;;;;;;4967505;28;20038;-79
2021/05/28 02:14:47;;;;;;;0.10;0.00;;;14.70;65.50;;;;;;4968435;28;20473;-78
2021/05/28 02:17:13;;;;;;;0.20;0.05;;;14.70;65.50;;;;;;4976459;28;20058;-79
2021/05/28 02:19:39;;;;;;;0.08;0.00;;;14.60;65.50;;;;;;4968590;28;20031;-79
2021/05/28 02:22:10;;;;;;;1.38;0.20;;;14.60;65.50;;;;;;4975483;28;20026;-79
2021/05/28 02:24:36;;;;;;;0.10;0.10;;;14.60;65.50;;;;;;4971307;28;20031;-79
2021/05/28 02:27:03;;;;;;;0.10;0.10;;;14.60;65.50;;;;;;4970395;28;20360;-79
2021/05/28 02:29:29;;;;;;;0.35;0.05;;;14.70;65.50;;;;;;4969113;28;20476;-78
2021/05/28 02:31:55;;;;;;;0.45;0.22;;;14.70;65.50;;;;;;4986453;28;20030;-79
2021/05/28 02:34:21;;;;;;;0.43;0.08;;;14.70;65.50;;;;;;4970476;28;20070;-79
2021/05/28 02:36:47;;;;;;;0.22;0.20;;;14.60;66.20;;;;;;4973824;28;20034;-79
2021/05/28 02:39:13;;;;;;;0.20;0.05;;;14.70;65.50;;;;;;4976503;28;20050;-78
2021/05/28 02:41:39;;;;;;;0.38;0.13;;;14.70;65.50;;;;;;4981522;28;20023;-78
2021/05/28 02:44:05;;;;;;;0.17;0.00;;;14.70;65.50;;;;;;4992292;28;20038;-78
2021/05/28 02:46:34;;;;;;;0.40;0.20;;;14.70;65.50;;;;;;4977481;28;20034;-78
2021/05/28 02:49:01;;;;;;;0.20;0.00;;;14.70;65.50;;;;;;4977509;28;20050;-78
2021/05/28 02:51:27;;;;;;;0.75;0.15;;;14.70;65.50;;;;;;4981740;28;20500;-79
2021/05/28 02:53:53;;;;;;;1.08;0.20;;;14.70;65.50;;;;;;4983137;28;20034;-78
2021/05/28 02:56:19;;;;;;;2.75;0.10;;;14.70;65.50;;;;;;4983327;28;20030;-78
2021/05/28 02:58:45;;;;;;;0.10;0.00;;;14.70;65.50;;;;;;4993256;28;20032;-79
2021/05/28 03:01:11;;;;;;;0.90;0.52;;;14.70;65.40;;;;;;4981928;28;20038;-78
2021/05/28 03:03:37;;;;;;;0.05;0.00;;;14.70;65.40;;;;;;4974369;28;20051;-79
2021/05/28 03:06:04;;;;;;;0.32;0.00;;;14.70;65.40;;;;;;4975717;28;20053;-79
2021/05/28 03:08:30;;;;;;;0.10;0.00;;;14.70;65.40;;;;;;4975504;28;20037;-78
2021/05/28 03:10:56;;;;;;;0.00;0.00;;;14.70;65.40;;;;;;4977198;28;20035;-78
2021/05/28 03:13:23;;;;;;;0.13;0.10;;;14.70;65.50;;;;;;4974807;28;20050;-79
2021/05/28 03:15:49;;;;;;;0.05;0.03;;;14.70;65.50;;;;;;4982825;28;20046;-78
2021/05/28 03:18:18;;;;;;;0.20;0.00;;;14.60;65.50;;;;;;4974917;28;20495;-79
2021/05/28 03:20:48;;;;;;;0.30;0.03;;;14.60;65.60;;;;;;5008153;28;20503;-78
2021/05/28 03:23:15;;;;;;;0.13;0.10;;;14.60;65.70;;;;;;4959348;28;20043;-79
2021/05/28 03:25:42;;;;;;;6.53;0.40;;;14.50;65.80;;;;;;4990842;28;20039;-78
2021/05/28 03:28:08;;;;;;;0.28;0.10;;;14.40;65.90;;;;;;4974697;28;20038;-78
2021/05/28 03:30:34;;;;;;;0.25;0.10;;;14.40;66.00;;;;;;4988579;28;20393;-78
2021/05/28 03:33:00;;;;;;;0.10;0.00;;;14.40;66.10;;;;;;4980083;28;20264;-79
2021/05/28 03:35:26;;;;;;;0.00;0.00;;;14.40;66.20;;;;;;4977233;28;20037;-80
2021/05/28 03:37:52;;;;;;;0.20;0.00;;;14.30;66.20;;;;;;4987564;28;20034;-79
2021/05/28 03:40:19;;;;;;;0.10;0.00;;;14.30;66.20;;;;;;4974929;28;20050;-79
2021/05/28 03:42:45;;;;;;;0.30;0.10;;;14.30;66.20;;;;;;4976833;28;20480;-77
2021/05/28 03:45:11;;;;;;;0.00;0.00;;;14.30;66.20;;;;;;4974204;28;20046;-78
2021/05/28 03:47:37;;;;;;;0.98;0.28;;;14.30;66.20;;;;;;4964069;28;20042;-77
2021/05/28 03:50:05;;;;;;;0.70;0.47;;;14.30;66.20;;;;;;4985308;28;20034;-78
2021/05/28 03:52:31;;;;;;;0.10;0.00;;;14.30;66.20;;;;;;4990837;28;20034;-79
2021/05/28 03:54:57;;;;;;;0.25;0.05;;;14.30;66.20;;;;;;4968979;28;20031;-78
2021/05/28 03:57:23;;;;;;;0.00;0.00;;;14.30;66.20;;;;;;4971995;28;20035;-79
2021/05/28 03:59:49;;;;;;;0.20;0.00;;;14.30;66.20;;;;;;5014895;28;20399;-79
2021/05/28 04:02:15;;;;;;;0.10;0.00;;;14.30;66.20;;;;;;4983191;28;20042;-80
2021/05/28 04:04:42;;;;;;;1.65;0.10;;;14.20;66.10;;;;;;4978489;28;20042;-79
2021/05/28 04:07:08;;;;;;;0.70;0.32;;;14.20;66.10;;;;;;4974920;28;20531;-90
2021/05/28 04:09:35;;;;;;;0.52;0.17;;;14.20;66.20;;;;;;4991794;28;20038;-80
2021/05/28 04:12:01;;;;;;;0.52;0.30;;;14.20;66.10;;;;;;4990545;28;20039;-80
2021/05/28 04:14:27;;;;;;;0.20;0.10;;;14.20;66.10;;;;;;4976874;28;20027;-80
2021/05/28 04:16:53;;;;;;;0.10;0.00;;;14.20;66.10;;;;;;4978231;28;20061;-79
2021/05/28 04:19:19;;;;;;;2.08;0.32;;;14.30;66.20;;;;;;4976501;28;20035;-80
2021/05/28 04:21:45;;;;;;;0.55;0.20;;;14.30;66.20;;;;;;4989750;28;20034;-79
2021/05/28 04:24:11;;;;;;;0.28;0.00;;;14.20;66.10;;;;;;4973997;28;20050;-80
2021/05/28 04:26:37;;;;;;;0.17;0.05;;;14.20;66.20;;;;;;4975316;28;20027;-79
2021/05/28 04:29:03;;;;;;;1.63;0.20;;;14.20;66.30;;;;;;4972468;28;20042;-79
2021/05/28 04:31:29;;;;;;;0.38;0.10;;;14.20;66.40;;;;;;4972334;28;20042;-79
2021/05/28 04:33:56;;;;;;;0.65;0.40;;;14.10;66.40;;;;;;4974748;28;20031;-79
2021/05/28 04:36:22;;;;;;;0.45;0.22;;;14.10;66.40;;;;;;4973519;28;20388;-79
2021/05/28 04:38:48;;;;;;;0.20;0.13;;;14.10;66.50;;;;;;4972313;28;20041;-79
2021/05/28 04:41:14;;;;;;;0.20;0.10;;;14.00;66.50;;;;;;4973741;28;20050;-79
2021/05/28 04:43:40;;;;;;;0.13;0.03;;;14.00;66.60;;;;;;4972355;28;20051;-79
2021/05/28 04:46:06;;;;;;;0.60;0.10;;;14.00;66.60;;;;;;4979083;28;20042;-79
2021/05/28 04:48:32;;;;;;;0.30;0.10;;;13.90;66.70;;;;;;4978403;28;20035;-79
2021/05/28 04:50:58;;;;;;;0.28;0.10;;;13.90;66.70;;;;;;4976589;28;20034;-79
2021/05/28 04:53:24;;;;;;;1.30;0.52;;;13.90;66.70;;;;;;4975641;28;20388;-79
2021/05/28 04:55:50;;;;;;;0.50;0.20;;;13.90;66.70;;;;;;4974943;28;20038;-78
2021/05/28 04:58:16;;;;;;;0.90;0.30;;;13.90;66.70;;;;;;4973949;28;20403;-79
2021/05/28 05:00:43;;;;;;;0.77;0.17;;;13.90;66.70;;;;;;4993826;28;20046;-79
2021/05/28 05:03:09;;;;;;;0.10;0.00;;;14.00;66.70;;;;;;4972910;28;20047;-79
2021/05/28 05:05:35;;;;;;;0.40;0.03;;;14.00;66.60;;;;;;4971748;28;20396;-78
2021/05/28 05:08:01;;;;;;;0.98;0.30;;;14.10;66.50;;;;;;4972246;28;20027;-79
2021/05/28 05:10:28;;;;;;;0.45;0.10;;;14.30;66.20;;;;;;4972216;28;20043;-80
2021/05/28 05:12:54;;;;;;;0.90;0.25;;;14.60;65.90;;;;;;4973413;28;20534;-77
2021/05/28 05:15:21;;;;;;;2.38;0.10;;;14.90;65.50;;;;;;4975308;28;20376;-79
2021/05/28 05:17:47;;;;;;;0.77;0.45;;;15.30;65.00;;;;;;4981497;28;20574;-80
2021/05/28 05:20:13;;;;;;;0.57;0.15;;;15.60;64.40;;;;;;4976059;28;20038;-79
2021/05/28 05:22:39;;;;;;;0.13;0.00;;;15.80;64.10;;;;;;4974053;28;20039;-79
2021/05/28 05:25:06;;;;;;;0.70;0.30;;;15.90;63.80;;;;;;4976873;28;20045;-79
2021/05/28 05:27:32;;;;;;;7.93;0.55;;;15.90;63.60;;;;;;5009319;28;20031;-79
2021/05/28 05:29:59;;;;;;;0.30;0.20;;;15.90;63.80;;;;;;5008720;28;20035;-77
2021/05/28 05:32:26;;;;;;;0.00;0.00;;;15.80;64.10;;;;;;5002944;28;20030;-79
2021/05/28 05:34:55;;;;;;;0.20;0.20;;;15.70;64.20;;;;;;4972856;28;20031;-79
2021/05/28 05:37:21;;;;;;;0.00;0.00;;;15.50;64.50;;;;;;4971689;28;20619;-79
2021/05/28 05:39:47;;;;;;;0.28;0.10;;;15.40;64.60;;;;;;4988308;28;20031;-79
2021/05/28 05:42:13;;;;;;;0.82;0.10;;;15.30;64.90;;;;;;4987639;28;20045;-80
2021/05/28 05:44:39;;;;;;;1.17;0.20;;;15.20;65.00;;;;;;4987548;28;20085;-79
2021/05/28 05:47:06;;;;;;;0.70;0.10;;;15.20;65.10;;;;;;4972546;28;20034;-79
2021/05/28 05:49:32;;;;;;;0.63;0.10;;;15.30;65.00;;;;;;4972289;28;20480;-78
2021/05/28 05:51:58;;;;;;;0.50;0.05;;;15.40;64.80;;;;;;4972143;28;20022;-79
2021/05/28 05:54:24;;;;;;;0.20;0.00;;;15.60;64.50;;;;;;4972618;28;20027;-79
2021/05/28 05:56:50;;;;;;;2.40;0.15;;;15.80;64.20;;;;;;4971541;28;20031;-91
2021/05/28 05:59:16;;;;;;;0.10;0.00;;;16.00;63.80;;;;;;4971556;28;20037;-89
2021/05/28 06:01:42;;;;;;;0.25;0.10;;;16.10;63.50;;;;;;4979641;28;20042;-79
2021/05/28 06:04:08;;;;;;;0.30;0.10;;;16.40;63.30;;;;;;4983409;28;20038;-81
2021/05/28 06:06:34;;;;;;;0.00;0.00;;;16.50;62.90;;;;;;4985371;28;20031;-82
2021/05/28 06:09:00;;;;;;;0.30;0.00;;;16.70;62.50;;;;;;4978748;28;20039;-81
2021/05/28 06:11:26;;;;;;;0.10;0.03;;;16.80;62.20;;;;;;4977007;28;20027;-80
2021/05/28 06:13:52;;;;;;;0.20;0.00;;;16.90;62.10;;;;;;4975709;28;20046;-81
2021/05/28 06:16:19;;;;;;;0.73;0.20;;;17.00;61.90;;;;;;4973924;28;20407;-80
2021/05/28 06:18:45;;;;;;;1.55;0.10;;;17.10;61.70;;;;;;4973226;28;20035;-81
2021/05/28 06:21:11;;;;;;;1.08;0.20;;;17.30;61.40;;;;;;4972420;28;20042;-82
2021/05/28 06:23:37;;;;;;;0.38;0.00;;;17.40;61.10;;;;;;4972051;28;20051;-84
2021/05/28 06:26:03;;;;;;;0.30;0.10;;;17.40;61.00;;;;;;4969495;28;20031;-82
2021/05/28 06:28:29;;;;;;;0.25;0.10;;;17.50;60.80;;;;;;4955680;28;20046;-83
2021/05/28 06:30:56;;;;;;;0.30;0.00;;;17.60;60.70;;;;;;4970266;28;20476;-82
2021/05/28 06:33:22;;;;;;;0.30;0.10;;;17.60;60.30;;;;;;4969751;28;20031;-83
2021/05/28 06:35:48;;;;;;;0.10;0.00;;;17.70;60.30;;;;;;4981696;28;20047;-81
2021/05/28 06:38:14;;;;;;;0.73;0.10;;;17.70;60.20;;;;;;4974054;28;20042;-80
2021/05/28 06:40:40;;;;;;;0.25;0.00;;;17.90;60.10;;;;;;4986107;28;20031;-87
2021/05/28 06:43:07;;;;;;;0.20;0.00;;;18.00;59.90;;;;;;4973777;28;20042;-89
2021/05/28 06:45:34;;;;;;;0.05;0.00;;;18.30;59.70;;;;;;4984902;28;20046;-89
2021/05/28 06:48:01;;;;;;;0.22;0.00;;;18.40;59.30;;;;;;4968370;28;20034;-90
2021/05/28 06:50:31;;;;;;;0.30;0.10;;;18.50;59.10;;;;;;4971991;28;20026;-88
2021/05/28 06:52:58;;;;;;;0.75;0.15;;;18.60;59.00;;;;;;4970830;28;20042;-86
2021/05/28 06:55:25;;;;;;;0.00;0.00;;;18.60;58.90;;;;;;4976788;28;20388;-79
2021/05/28 06:57:51;;;;;;;0.00;0.00;;;18.70;58.80;;;;;;4976593;28;20046;-79
2021/05/28 07:00:18;;;;;;;0.30;0.10;;;18.70;58.70;;;;;;4978304;28;20038;-79
2021/05/28 07:02:44;;;;;;;0.10;0.00;;;18.80;58.50;;;;;;4988031;28;20042;-79
2021/05/28 07:05:10;;;;;;;0.75;0.45;;;18.80;58.30;;;;;;4977285;28;20046;-80
2021/05/28 07:07:36;;;;;;;0.00;0.00;;;18.90;58.20;;;;;;4971256;28;20043;-79
2021/05/28 07:10:03;;;;;;;2.53;0.05;;;19.00;58.20;;;;;;4974590;28;20042;-82
2021/05/28 07:12:29;;;;;;;0.10;0.05;;;19.10;57.90;;;;;;4974443;28;20034;-82
2021/05/28 07:14:55;;;;;;;0.20;0.10;;;19.10;57.80;;;;;;4953642;28;20049;-80
2021/05/28 07:17:22;;;;;;;0.03;0.00;;;19.20;57.70;;;;;;4985559;28;20039;-80
2021/05/28 07:19:48;;;;;;;0.10;0.00;;;19.30;57.50;;;;;;4973049;28;20042;-80
2021/05/28 07:22:14;;;;;;;0.47;0.22;;;19.40;57.10;;;;;;4982631;28;20468;-80
2021/05/28 07:24:40;;;;;;;0.05;0.00;;;19.40;56.90;;;;;;4978014;28;20042;-80
2021/05/28 07:27:08;;;;;;;0.00;0.00;;;19.50;56.90;;;;;;4978833;28;20027;-83
2021/05/28 07:29:34;;;;;;;0.10;0.00;;;19.50;56.90;;;;;;4978249;28;20028;-85
2021/05/28 07:32:01;;;;;;;2.15;0.10;;;19.50;56.80;;;;;;4970276;28;20042;-83
2021/05/28 07:34:27;;;;;;;0.20;0.03;;;19.50;56.60;;;;;;4970436;28;20034;-85
2021/05/28 07:36:53;;;;;;;0.10;0.00;;;19.60;56.50;;;;;;4982798;28;20027;-82
2021/05/28 07:39:19;;;;;;;0.35;0.10;;;19.70;56.30;;;;;;4971294;28;20027;-83
2021/05/28 07:41:46;;;;;;;0.20;0.10;;;19.80;56.20;;;;;;4984916;28;20042;-84
2021/05/28 07:44:12;;;;;;;0.20;0.10;;;20.00;56.00;;;;;;4985971;28;20095;-87
2021/05/28 07:46:44;;;;;;;0.80;0.20;;;20.10;55.40;;;;;;4973319;28;20031;-86
2021/05/28 07:49:13;;;;;;;0.28;0.08;;;20.10;55.30;;;;;;4970812;28;20361;-87
2021/05/28 07:51:39;;;;;;;0.35;0.00;;;20.10;55.40;;;;;;4970461;28;20034;-88
2021/05/28 07:54:06;;;;;;;0.10;0.00;;;20.00;55.30;;;;;;4969043;28;20042;-88
2021/05/28 07:56:33;;;;;;;1.08;0.05;;;20.00;55.30;;;;;;4972400;28;20361;-87
2021/05/28 07:58:59;;;;;;;0.00;0.00;;;20.00;55.40;;;;;;4973882;28;20038;-86
2021/05/28 08:01:25;;;;;;;0.20;0.00;;;20.00;55.30;;;;;;4957250;28;20514;-87
2021/05/28 08:03:51;;;;;;;0.28;0.10;;;20.20;55.10;;;;;;4989961;28;20039;-86
2021/05/28 08:06:17;;;;;;;0.30;0.20;;;20.40;54.60;;;;;;4973979;28;20038;-86
2021/05/28 08:08:43;;;;;;;1.08;0.10;;;20.60;54.30;;;;;;4973534;28;20046;-87
2021/05/28 08:11:09;;;;;;;0.00;0.00;;;20.70;54.10;;;;;;4973633;28;20046;-87
2021/05/28 08:13:36;;;;;;;0.10;0.00;;;20.80;53.90;;;;;;4955535;28;20050;-88
2021/05/28 08:16:03;;;;;;;0.28;0.10;;;20.90;53.60;;;;;;4973130;28;20046;-87
2021/05/28 08:18:29;;;;;;;0.00;0.00;;;20.90;53.50;;;;;;4973672;28;20038;-88
2021/05/28 08:20:56;;;;;;;0.00;0.00;;;20.90;53.50;;;;;;4989189;28;20489;-88
2021/05/28 08:23:22;;;;;;;0.20;0.00;;;21.00;53.40;;;;;;4973367;28;20365;-87
2021/05/28 08:25:49;;;;;;;0.17;0.03;;;21.10;53.20;;;;;;4974415;28;20049;-88
2021/05/28 08:28:17;;;;;;;0.08;0.00;;;21.10;53.20;;;;;;4955843;28;20034;-84
2021/05/28 08:30:43;;;;;;;1.33;0.47;;;21.30;53.20;;;;;;4981592;28;20039;-83
2021/05/28 08:33:12;;;;;;;0.00;0.00;;;21.50;52.70;;;;;;4974883;28;20030;-83
2021/05/28 08:35:38;;;;;;;0.20;0.00;;;21.50;52.50;;;;;;4975061;28;20061;-81
2021/05/28 08:38:05;;;;;;;2.08;0.20;;;21.60;52.30;;;;;;4968681;28;20026;-82
2021/05/28 08:40:32;;;;;;;0.00;0.00;;;21.60;52.30;;;;;;4966776;28;20023;-82
2021/05/28 08:43:00;;;;;;;0.13;0.00;;;21.70;52.30;;;;;;4970801;28;20044;-82
2021/05/28 08:45:28;;;;;;;0.10;0.00;;;21.80;52.10;;;;;;4971911;28;20054;-82
2021/05/28 08:47:54;;;;;;;0.15;0.00;;;21.80;52.00;;;;;;4968713;28;20034;-83
2021/05/28 08:50:25;;;;;;;0.10;0.00;;;21.90;51.80;;;;;;4958975;28;20046;-83
2021/05/28 08:52:51;;;;;;;1.55;0.60;;;22.00;51.50;;;;;;4978397;28;20395;-86
2021/05/28 08:55:17;;;;;;;0.08;0.00;;;22.00;51.30;;;;;;4975909;28;20031;-87
2021/05/28 08:57:43;;;;;;;0.00;0.00;;;22.10;51.00;;;;;;4978424;28;20087;-86
2021/05/28 09:00:10;;;;;;;0.20;0.00;;;22.10;51.00;;;;;;4972953;28;20031;-85
2021/05/28 09:02:38;;;;;;;0.20;0.05;;;22.20;51.10;;;;;;4973484;28;20023;-84
2021/05/28 09:05:11;;;;;;;0.10;0.00;;;22.40;50.80;;;;;;4989859;28;20043;-83
2021/05/28 09:07:37;;;;;;;0.08;0.00;;;22.50;50.50;;;;;;4959238;28;20054;-84
2021/05/28 09:10:26;;;;;;;0.00;0.00;;;22.50;50.40;;;;;;4972698;28;20026;-84
2021/05/28 09:12:52;;;;;;;0.17;0.00;;;22.70;50.20;;;;;;4973180;28;20031;-83
2021/05/28 09:15:19;;;;;;;0.10;0.00;;;22.80;50.00;;;;;;4974214;28;20051;-86
2021/05/28 09:17:49;;;;;;;0.20;0.10;;;22.90;49.80;;;;;;4982037;28;20038;-85
2021/05/28 09:20:17;;;;;;;0.30;0.13;;;22.90;49.70;;;;;;4978141;28;20403;-85
2021/05/28 09:22:43;;;;;;;0.00;0.00;;;23.00;49.70;;;;;;4987547;28;20282;-84
2021/05/28 09:25:09;;;;;;;0.10;0.00;;;23.10;49.40;;;;;;4976252;28;20046;-85
2021/05/28 09:27:37;;;;;;;0.10;0.00;;;23.20;49.40;;;;;;4977663;28;20384;-85
2021/05/28 09:30:13;;;;;;;0.10;0.00;;;23.30;49.00;;;;;;4975137;28;20031;-84
2021/05/28 09:32:44;;;;;;;0.00;0.00;;;23.30;49.10;;;;;;4971741;28;20499;-83
2021/05/28 09:35:15;;;;;;;0.10;0.00;;;23.40;48.80;;;;;;4973894;28;20498;-84
2021/05/28 09:37:42;;;;;;;1.05;0.40;;;23.40;48.80;;;;;;4962111;28;20374;-83
2021/05/28 09:40:17;;;;;;;0.08;0.00;;;23.50;48.80;;;;;;4975103;28;20031;-82
2021/05/28 09:42:56;;;;;;;0.80;0.15;;;23.60;48.60;;;;;;4975811;28;20046;-83
2021/05/28 09:45:35;;;;;;;0.00;0.00;;;23.60;48.30;;;;;;4984664;28;20053;-84
2021/05/28 09:48:02;;;;;;;0.20;0.00;;;23.60;48.20;;;;;;4973686;28;20030;-85
2021/05/28 09:50:35;;;;;;;0.10;0.00;;;23.60;48.10;;;;;;4986721;28;20037;-84
2021/05/28 09:53:04;;;;;;;0.00;0.00;;;23.70;47.90;;;;;;4972580;28;20038;-83
2021/05/28 09:55:31;;;;;;;0.17;0.00;;;23.70;48.00;;;;;;4954010;28;20027;-84
2021/05/28 09:57:57;;;;;;;1.15;0.10;;;23.70;47.80;;;;;;4985377;28;20034;-83
2021/05/28 10:00:24;;;;;;;0.30;0.10;;;23.80;47.80;;;;;;4988404;28;20047;-85
2021/05/28 10:03:12;;;;;;;1.17;0.15;;;23.80;47.60;;;;;;4984804;28;20023;-85
2021/05/28 10:05:40;;;;;;;0.08;0.00;;;24.00;47.70;;;;;;4969500;28;20031;-90
2021/05/28 10:08:11;;;;;;;0.22;0.00;;;24.00;47.40;;;;;;4971788;28;20457;-85
2021/05/28 10:10:37;;;;;;;0.65;0.10;;;24.10;47.30;;;;;;4970818;28;20039;-86
2021/05/28 10:13:10;;;;;;;0.00;0.00;;;24.20;47.20;;;;;;4971317;28;20034;-85
2021/05/28 10:15:44;;;;;;;0.25;0.00;;;24.20;47.10;;;;;;4970943;28;20047;-85
2021/05/28 10:18:10;;;;;;;0.00;0.00;;;24.30;47.10;;;;;;4972167;28;20031;-85
2021/05/28 10:20:37;;;;;;;0.90;0.43;;;24.40;46.90;;;;;;4971428;28;20026;-85
2021/05/28 10:23:04;;;;;;;0.20;0.00;;;24.50;46.80;;;;;;4972852;28;20496;-85
2021/05/28 10:25:30;;;;;;;0.00;0.00;;;24.50;46.40;;;;;;4955753;28;20054;-85
2021/05/28 10:27:58;;;;;;;0.00;0.00;;;24.60;46.30;;;;;;4972834;28;20106;-85
2021/05/28 10:30:26;;;;;;;0.10;0.00;;;24.60;46.10;;;;;;4975010;28;20476;-85
2021/05/28 10:33:14;;;;;;;0.00;0.00;;;24.70;45.90;;;;;;4980812;28;20461;-86
2021/05/28 10:35:44;;;;;;;0.52;0.10;;;24.80;45.80;;;;;;4976228;28;20041;-85
2021/05/28 10:38:29;;;;;;;0.10;0.10;;;24.80;45.50;;;;;;4975545;28;20018;-85
2021/05/28 10:41:04;;;;;;;0.00;0.00;;;24.90;45.30;;;;;;4974457;28;20038;-85
2021/05/28 10:44:04;;;;;;;0.00;0.00;;;25.00;44.90;;;;;;4988208;28;20038;-85
2021/05/28 10:46:30;;;;;;;0.30;0.13;;;25.20;44.60;;;;;;4969407;28;20046;-84
2021/05/28 10:48:56;;;;;;;0.55;0.10;;;25.20;44.30;;;;;;4966107;28;20035;-85
2021/05/28 10:51:42;;;;;;;0.10;0.00;;;25.10;44.20;;;;;;4967122;28;20049;-83
2021/05/28 10:54:08;;;;;;;0.15;0.08;;;25.10;44.10;;;;;;4967773;28;20039;-85
2021/05/28 10:56:37;;;;;;;0.00;0.00;;;25.00;43.90;;;;;;4970497;28;20039;-86
2021/05/28 10:59:06;;;;;;;0.98;0.20;;;25.10;43.80;;;;;;4968590;28;20035;-85
2021/05/28 11:01:35;;;;;;;0.13;0.00;;;25.10;43.40;;;;;;4973201;28;20182;-85
2021/05/28 11:04:03;;;;;;;0.00;0.00;;;25.10;43.40;;;;;;4974022;28;20027;-85
2021/05/28 11:06:30;;;;;;;0.00;0.00;;;25.20;43.50;;;;;;4953727;28;20051;-86
2021/05/28 11:09:06;;;;;;;0.00;0.00;;;25.30;42.90;;;;;;4945546;29;20047;-86
2021/05/28 11:11:43;;;;;;;0.00;0.00;;;25.30;42.80;;;;;;4961776;28;20562;-85
2021/05/28 11:14:10;;;;;;;0.75;0.00;;;25.40;42.60;;;;;;4968057;28;20036;-85
2021/05/28 11:16:57;;;;;;;0.00;0.00;;;25.40;42.40;;;;;;4942554;28;20039;-86
2021/05/28 11:19:27;;;;;;;0.00;0.00;;;25.50;42.30;;;;;;4973298;28;20047;-85
2021/05/28 11:21:54;;;;;;;0.00;0.00;;;25.50;42.00;;;;;;4954736;28;20393;-85
2021/05/28 11:24:20;;;;;;;0.00;0.00;;;25.40;41.70;;;;;;4961201;28;20058;-85
2021/05/28 11:26:46;;;;;;;2.95;0.00;;;25.40;41.90;;;;;;4950747;28;20027;-86
2021/05/28 11:29:19;;;;;;;0.00;0.00;;;25.30;41.90;;;;;;4986626;28;20042;-86
2021/05/28 11:31:45;;;;;;;0.00;0.00;;;25.40;41.70;;;;;;4984227;28;20043;-86
2021/05/28 11:34:11;;;;;;;0.00;0.00;;;25.40;41.40;;;;;;4974332;28;20023;-86
2021/05/28 11:36:40;;;;;;;0.43;0.00;;;25.40;41.30;;;;;;4975423;28;20167;-85
2021/05/28 11:39:25;;;;;;;0.05;0.00;;;25.40;41.30;;;;;;4974269;28;20026;-85
2021/05/28 11:42:00;;;;;;;0.00;0.00;;;25.40;41.30;;;;;;4974210;28;20400;-86
2021/05/28 11:44:28;;;;;;;4.95;0.15;;;25.40;40.90;;;;;;4957111;28;20400;-85
2021/05/28 11:46:54;;;;;;;0.00;0.00;;;25.30;40.70;;;;;;4974961;28;20407;-85
2021/05/28 11:49:21;;;;;;;0.00;0.00;;;25.30;40.90;;;;;;4974444;28;20039;-85
2021/05/28 11:52:00;;;;;;;0.22;0.08;;;25.30;41.00;;;;;;4975466;28;20022;-86
2021/05/28 11:54:30;;;;;;;0.00;0.00;;;25.40;40.90;;;;;;4973264;28;20391;-85
2021/05/28 11:57:01;;;;;;;0.00;0.00;;;25.50;40.60;;;;;;4973885;28;20031;-86
2021/05/28 11:59:45;;;;;;;0.00;0.00;;;25.50;41.10;;;;;;4974599;28;20041;-86
2021/05/28 12:02:12;;;;;;;0.30;0.00;;;25.50;40.40;;;;;;4985112;28;20034;-86
2021/05/28 12:04:38;;;;;;;0.10;0.00;;;25.50;40.30;;;;;;4974031;28;20062;-86
2021/05/28 12:07:10;;;;;;;0.00;0.00;;;25.60;40.20;;;;;;4978309;28;20477;-86
2021/05/28 12:10:03;;;;;;;0.00;0.00;;;25.60;40.20;;;;;;5009075;28;20031;-86
2021/05/28 12:12:52;;;;;;;0.10;0.00;;;25.70;40.10;;;;;;4981790;28;20029;-86
2021/05/28 12:15:18;;;;;;;2.38;0.10;;;25.70;40.20;;;;;;4978393;28;20030;-85
2021/05/28 12:17:45;;;;;;;0.10;0.00;;;25.80;40.20;;;;;;4972257;28;20030;-86
2021/05/28 12:20:21;;;;;;;0.00;0.00;;;25.80;40.00;;;;;;4973805;28;20036;-85
2021/05/28 12:23:00;;;;;;;0.00;0.00;;;25.90;40.10;;;;;;4974883;28;20038;-85
2021/05/28 12:25:27;;;;;;;0.00;0.00;;;25.90;39.70;;;;;;4974409;28;20038;-86
2021/05/28 12:27:53;;;;;;;0.00;0.00;;;25.80;39.70;;;;;;4974712;28;20396;-85
2021/05/28 12:30:23;;;;;;;0.00;0.00;;;25.80;39.90;;;;;;4973429;28;20026;-86
2021/05/28 12:32:49;;;;;;;0.10;0.00;;;25.90;39.80;;;;;;4972859;28;20120;-86
2021/05/28 12:35:15;;;;;;;1.42;0.20;;;25.90;39.70;;;;;;4973758;28;20031;-85
2021/05/28 12:38:20;;;;;;;0.13;0.00;;;25.90;39.40;;;;;;4957316;28;20492;-86
2021/05/28 12:40:47;;;;;;;1.17;0.00;;;25.90;39.60;;;;;;4960363;28;20392;-85
2021/05/28 12:43:24;;;;;;;0.10;0.00;;;26.00;39.70;;;;;;4973083;28;20057;-85
2021/05/28 12:45:51;;;;;;;0.15;0.10;;;26.10;39.60;;;;;;4987881;28;20049;-86
2021/05/28 12:48:17;;;;;;;0.10;0.00;;;26.00;39.50;;;;;;4973518;28;20499;-86
2021/05/28 12:50:45;;;;;;;0.00;0.00;;;26.00;39.70;;;;;;4973548;28;20054;-84